sensor_id;sensor_type;location;lat;lon;timestamp;pressure;altitude;pressure_sealevel;temperature;humidity
69247;BME280;56358;56.328;43.992;2023-03-21T00:00:55;100452.91;;;2.94;78.94
69247;BME280;56358;56.328;43.992;2023-03-21T00:02:56;100431.34;;;2.82;79.07
69247;BME280;56358;56.328;43.992;2023-03-21T00:04:57;100473.09;;;2.96;78.77
69247;BME280;56358;56.328;43.992;2023-03-21T00:06:57;100458.97;;;2.96;79.31
69247;BME280;56358;56.328;43.992;2023-03-21T00:08:58;100472.94;;;2.99;78.87
69247;BME280;56358;56.328;43.992;2023-03-21T00:11:03;100449.09;;;2.99;78.69
69247;BME280;56358;56.328;43.992;2023-03-21T00:13:04;100455.03;;;3.05;78.44
69247;BME280;56358;56.328;43.992;2023-03-21T00:15:06;100375.97;;;2.59;78.31
69247;BME280;56358;56.328;43.992;2023-03-21T00:17:07;100460.19;;;3.08;78.36
69247;BME280;56358;56.328;43.992;2023-03-21T00:19:10;100462.06;;;3.06;78.19
69247;BME280;56358;56.328;43.992;2023-03-21T00:21:14;100357.38;;;2.41;78.20
69247;BME280;56358;56.328;43.992;2023-03-21T00:23:15;100458.94;;;2.97;78.13
69247;BME280;56358;56.328;43.992;2023-03-21T00:25:15;100464.22;;;2.97;78.35
69247;BME280;56358;56.328;43.992;2023-03-21T00:27:16;100440.25;;;2.81;78.49
69247;BME280;56358;56.328;43.992;2023-03-21T00:29:19;100457.06;;;2.80;79.01
69247;BME280;56358;56.328;43.992;2023-03-21T00:31:20;100446.31;;;2.83;78.67
69247;BME280;56358;56.328;43.992;2023-03-21T00:33:20;100450.44;;;2.89;79.31
69247;BME280;56358;56.328;43.992;2023-03-21T00:35:21;100410.66;;;2.72;79.13
69247;BME280;56358;56.328;43.992;2023-03-21T00:37:21;100441.50;;;2.92;79.03
69247;BME280;56358;56.328;43.992;2023-03-21T00:39:22;100429.34;;;2.88;79.16
69247;BME280;56358;56.328;43.992;2023-03-21T00:41:23;100423.06;;;2.90;79.20
69247;BME280;56358;56.328;43.992;2023-03-21T00:43:23;100412.47;;;2.90;79.00
69247;BME280;56358;56.328;43.992;2023-03-21T00:45:29;100429.78;;;2.97;79.03
69247;BME280;56358;56.328;43.992;2023-03-21T00:47:31;100420.56;;;2.87;78.87
69247;BME280;56358;56.328;43.992;2023-03-21T00:49:31;100426.50;;;2.92;79.34
69247;BME280;56358;56.328;43.992;2023-03-21T00:51:33;100429.91;;;2.94;79.03
69247;BME280;56358;56.328;43.992;2023-03-21T00:53:33;100433.28;;;2.98;79.10
69247;BME280;56358;56.328;43.992;2023-03-21T00:55:34;100413.53;;;2.86;78.90
69247;BME280;56358;56.328;43.992;2023-03-21T00:57:35;100430.56;;;2.99;78.81
69247;BME280;56358;56.328;43.992;2023-03-21T00:59:35;100435.78;;;3.01;78.63
69247;BME280;56358;56.328;43.992;2023-03-21T01:01:36;100435.00;;;2.99;78.79
69247;BME280;56358;56.328;43.992;2023-03-21T01:03:37;100430.56;;;2.99;78.87
69247;BME280;56358;56.328;43.992;2023-03-21T01:05:44;100426.00;;;3.03;78.83
69247;BME280;56358;56.328;43.992;2023-03-21T01:08:04;100429.56;;;3.02;78.71
69247;BME280;56358;56.328;43.992;2023-03-21T01:10:05;100369.69;;;2.61;78.52
69247;BME280;56358;56.328;43.992;2023-03-21T01:12:06;100428.16;;;2.95;78.80
69247;BME280;56358;56.328;43.992;2023-03-21T01:14:07;100420.13;;;2.96;78.59
69247;BME280;56358;56.328;43.992;2023-03-21T01:16:08;100409.16;;;2.85;78.26
69247;BME280;56358;56.328;43.992;2023-03-21T01:18:09;100352.22;;;2.57;78.45
69247;BME280;56358;56.328;43.992;2023-03-21T01:20:10;100423.63;;;2.97;78.58
69247;BME280;56358;56.328;43.992;2023-03-21T01:22:11;100416.69;;;2.94;78.77
69247;BME280;56358;56.328;43.992;2023-03-21T01:24:12;100420.03;;;2.98;78.55
69247;BME280;56358;56.328;43.992;2023-03-21T01:26:13;100406.00;;;2.96;78.71
69247;BME280;56358;56.328;43.992;2023-03-21T01:28:14;100426.13;;;3.00;78.83
69247;BME280;56358;56.328;43.992;2023-03-21T01:30:15;100425.09;;;3.02;78.80
69247;BME280;56358;56.328;43.992;2023-03-21T01:32:16;100418.97;;;3.02;78.70
69247;BME280;56358;56.328;43.992;2023-03-21T01:34:17;100410.09;;;3.03;78.65
69247;BME280;56358;56.328;43.992;2023-03-21T01:36:23;100358.94;;;2.64;79.20
69247;BME280;56358;56.328;43.992;2023-03-21T01:38:24;100398.50;;;3.06;78.73
69247;BME280;56358;56.328;43.992;2023-03-21T01:40:26;100421.53;;;3.04;79.11
69247;BME280;56358;56.328;43.992;2023-03-21T01:42:27;100357.72;;;2.72;78.35
69247;BME280;56358;56.328;43.992;2023-03-21T01:44:28;100386.78;;;2.92;78.22
69247;BME280;56358;56.328;43.992;2023-03-21T01:46:39;100397.84;;;3.00;78.52
69247;BME280;56358;56.328;43.992;2023-03-21T01:48:41;100394.34;;;3.00;78.38
69247;BME280;56358;56.328;43.992;2023-03-21T01:50:42;100377.31;;;2.87;78.15
69247;BME280;56358;56.328;43.992;2023-03-21T01:52:43;100397.84;;;3.00;78.52
69247;BME280;56358;56.328;43.992;2023-03-21T01:54:46;100406.56;;;3.02;78.20
69247;BME280;56358;56.328;43.992;2023-03-21T01:56:47;100393.28;;;3.04;78.03
69247;BME280;56358;56.328;43.992;2023-03-21T01:58:48;100299.59;;;2.51;77.98
69247;BME280;56358;56.328;43.992;2023-03-21T02:00:50;100305.44;;;2.58;77.54
69247;BME280;56358;56.328;43.992;2023-03-21T02:02:51;100365.19;;;3.00;77.64
69247;BME280;56358;56.328;43.992;2023-03-21T02:04:54;100291.66;;;2.51;78.21
69247;BME280;56358;56.328;43.992;2023-03-21T02:07:01;100367.94;;;2.98;78.04
69247;BME280;56358;56.328;43.992;2023-03-21T02:09:08;100289.75;;;2.53;78.32
69247;BME280;56358;56.328;43.992;2023-03-21T02:11:10;100362.78;;;2.95;78.11
69247;BME280;56358;56.328;43.992;2023-03-21T02:13:11;100341.19;;;2.85;78.19
69247;BME280;56358;56.328;43.992;2023-03-21T02:15:12;100362.41;;;3.03;77.87
69247;BME280;56358;56.328;43.992;2023-03-21T02:17:27;100361.25;;;3.09;77.77
69247;BME280;56358;56.328;43.992;2023-03-21T02:35:55;100348.63;;;2.96;78.66
69247;BME280;56358;56.328;43.992;2023-03-21T02:38:30;100347.63;;;2.99;78.01
69247;BME280;56358;56.328;43.992;2023-03-21T02:47:06;100359.50;;;2.90;79.58
69247;BME280;56358;56.328;43.992;2023-03-21T02:49:34;100337.59;;;2.87;79.24
69247;BME280;56358;56.328;43.992;2023-03-21T02:51:39;100363.31;;;2.84;78.87
69247;BME280;56358;56.328;43.992;2023-03-21T02:53:45;100298.28;;;2.60;78.81
69247;BME280;56358;56.328;43.992;2023-03-21T02:55:48;100317.81;;;2.57;78.54
69247;BME280;56358;56.328;43.992;2023-03-21T02:57:50;100317.44;;;2.65;78.65
69247;BME280;56358;56.328;43.992;2023-03-21T02:59:51;100317.69;;;2.60;78.54
69247;BME280;56358;56.328;43.992;2023-03-21T03:01:54;100328.25;;;2.60;79.35
69247;BME280;56358;56.328;43.992;2023-03-21T03:03:55;100327.47;;;2.58;79.65
69247;BME280;56358;56.328;43.992;2023-03-21T03:05:57;100319.03;;;2.50;79.57
69247;BME280;56358;56.328;43.992;2023-03-21T03:08:04;100325.75;;;2.57;79.09
69247;BME280;56358;56.328;43.992;2023-03-21T03:10:30;100331.34;;;2.51;78.97
69247;BME280;56358;56.328;43.992;2023-03-21T03:17:22;100313.31;;;2.40;79.80
69247;BME280;56358;56.328;43.992;2023-03-21T03:19:28;100320.47;;;2.38;80.07
69247;BME280;56358;56.328;43.992;2023-03-21T03:26:27;100318.47;;;2.43;79.34
69247;BME280;56358;56.328;43.992;2023-03-21T03:28:36;100331.63;;;2.45;79.40
69247;BME280;56358;56.328;43.992;2023-03-21T03:30:37;100299.94;;;2.24;79.42
69247;BME280;56358;56.328;43.992;2023-03-21T03:32:43;100301.16;;;2.36;79.50
69247;BME280;56358;56.328;43.992;2023-03-21T03:34:50;100304.81;;;2.33;79.26
69247;BME280;56358;56.328;43.992;2023-03-21T03:36:56;100299.66;;;2.30;79.20
69247;BME280;56358;56.328;43.992;2023-03-21T03:39:02;100218.09;;;1.83;79.08
69247;BME280;56358;56.328;43.992;2023-03-21T03:41:13;100312.44;;;2.40;79.23
69247;BME280;56358;56.328;43.992;2023-03-21T03:43:22;100317.75;;;2.40;79.34
69247;BME280;56358;56.328;43.992;2023-03-21T03:45:32;100322.09;;;2.41;79.19
69247;BME280;56358;56.328;43.992;2023-03-21T03:47:40;100308.81;;;2.42;79.62
69247;BME280;56358;56.328;43.992;2023-03-21T03:49:45;100310.44;;;2.45;79.42
69247;BME280;56358;56.328;43.992;2023-03-21T03:51:59;100325.25;;;2.49;79.25
69247;BME280;56358;56.328;43.992;2023-03-21T03:54:06;100296.66;;;2.38;79.49
69247;BME280;56358;56.328;43.992;2023-03-21T03:56:09;100302.59;;;2.43;79.20
69247;BME280;56358;56.328;43.992;2023-03-21T03:58:11;100321.53;;;2.53;79.36
69247;BME280;56358;56.328;43.992;2023-03-21T04:00:13;100310.31;;;2.48;79.30
69247;BME280;56358;56.328;43.992;2023-03-21T04:02:18;100254.25;;;2.21;79.58
69247;BME280;56358;56.328;43.992;2023-03-21T04:04:19;100288.06;;;2.52;79.38
69247;BME280;56358;56.328;43.992;2023-03-21T04:06:22;100209.72;;;2.11;78.87
69247;BME280;56358;56.328;43.992;2023-03-21T04:08:23;100279.97;;;2.55;79.24
69247;BME280;56358;56.328;43.992;2023-03-21T04:10:24;100309.75;;;2.60;79.59
69247;BME280;56358;56.328;43.992;2023-03-21T04:12:25;100305.00;;;2.67;80.08
69247;BME280;56358;56.328;43.992;2023-03-21T04:14:25;100300.34;;;2.72;80.01
69247;BME280;56358;56.328;43.992;2023-03-21T04:16:26;100281.91;;;2.71;79.68
69247;BME280;56358;56.328;43.992;2023-03-21T04:18:27;100270.53;;;2.68;80.88
69247;BME280;56358;56.328;43.992;2023-03-21T04:20:28;100172.13;;;2.05;82.18
69247;BME280;56358;56.328;43.992;2023-03-21T04:22:28;100194.69;;;2.31;80.20
69247;BME280;56358;56.328;43.992;2023-03-21T04:24:30;100297.94;;;2.85;79.85
69247;BME280;56358;56.328;43.992;2023-03-21T04:26:33;100306.53;;;2.90;79.58
69247;BME280;56358;56.328;43.992;2023-03-21T04:28:35;100270.16;;;2.76;79.69
69247;BME280;56358;56.328;43.992;2023-03-21T04:30:36;100295.78;;;2.93;79.50
69247;BME280;56358;56.328;43.992;2023-03-21T04:32:38;100232.34;;;2.55;79.34
69247;BME280;56358;56.328;43.992;2023-03-21T04:34:39;100287.72;;;2.96;79.73
69247;BME280;56358;56.328;43.992;2023-03-21T04:36:39;100287.00;;;2.93;79.51
69247;BME280;56358;56.328;43.992;2023-03-21T04:38:46;100292.84;;;2.99;79.61
69247;BME280;56358;56.328;43.992;2023-03-21T04:40:48;100229.09;;;2.67;79.74
69247;BME280;56358;56.328;43.992;2023-03-21T04:42:48;100276.66;;;3.06;79.89
69247;BME280;56358;56.328;43.992;2023-03-21T04:44:49;100288.72;;;3.11;79.55
69247;BME280;56358;56.328;43.992;2023-03-21T04:46:50;100290.03;;;3.20;79.06
69247;BME280;56358;56.328;43.992;2023-03-21T04:48:51;100205.19;;;2.69;78.75
69247;BME280;56358;56.328;43.992;2023-03-21T04:50:51;100290.13;;;3.18;78.68
69247;BME280;56358;56.328;43.992;2023-03-21T04:52:52;100265.34;;;3.02;78.57
69247;BME280;56358;56.328;43.992;2023-03-21T04:54:53;100281.63;;;3.12;78.85
69247;BME280;56358;56.328;43.992;2023-03-21T04:56:53;100286.00;;;3.13;78.52
69247;BME280;56358;56.328;43.992;2023-03-21T04:58:54;100266.63;;;3.12;78.13
69247;BME280;56358;56.328;43.992;2023-03-21T05:00:55;100271.28;;;3.07;78.32
69247;BME280;56358;56.328;43.992;2023-03-21T05:02:56;100281.72;;;3.10;78.86
69247;BME280;56358;56.328;43.992;2023-03-21T05:04:57;100270.19;;;3.11;78.97
69247;BME280;56358;56.328;43.992;2023-03-21T05:06:58;100269.94;;;3.16;78.83
69247;BME280;56358;56.328;43.992;2023-03-21T05:08:59;100256.09;;;3.11;79.13
69247;BME280;56358;56.328;43.992;2023-03-21T05:11:01;100268.94;;;3.18;78.88
69247;BME280;56358;56.328;43.992;2023-03-21T05:13:02;100242.34;;;3.02;78.93
69247;BME280;56358;56.328;43.992;2023-03-21T05:15:03;100244.16;;;3.02;79.11
69247;BME280;56358;56.328;43.992;2023-03-21T05:17:04;100270.03;;;3.14;79.01
69247;BME280;56358;56.328;43.992;2023-03-21T05:19:05;100243.38;;;3.00;78.91
69247;BME280;56358;56.328;43.992;2023-03-21T05:21:06;100269.66;;;3.22;78.76
69247;BME280;56358;56.328;43.992;2023-03-21T05:23:10;100267.72;;;3.26;78.62
69247;BME280;56358;56.328;43.992;2023-03-21T05:25:11;100266.06;;;3.23;77.97
69247;BME280;56358;56.328;43.992;2023-03-21T05:27:13;100266.16;;;3.22;78.42
69247;BME280;56358;56.328;43.992;2023-03-21T05:29:34;100253.75;;;3.22;77.94
69247;BME280;56358;56.328;43.992;2023-03-21T05:31:35;100228.81;;;3.09;78.31
69247;BME280;56358;56.328;43.992;2023-03-21T05:33:35;100240.88;;;3.14;78.11
69247;BME280;56358;56.328;43.992;2023-03-21T05:35:36;100265.13;;;3.24;78.07
69247;BME280;56358;56.328;43.992;2023-03-21T05:37:37;100255.56;;;3.22;79.00
69247;BME280;56358;56.328;43.992;2023-03-21T05:39:37;100237.56;;;3.11;78.93
69247;BME280;56358;56.328;43.992;2023-03-21T05:41:38;100242.31;;;3.22;79.11
69247;BME280;56358;56.328;43.992;2023-03-21T05:43:39;100184.66;;;2.92;78.98
69247;BME280;56358;56.328;43.992;2023-03-21T05:45:39;100263.03;;;3.31;78.79
69247;BME280;56358;56.328;43.992;2023-03-21T05:47:40;100261.22;;;3.31;78.61
69247;BME280;56358;56.328;43.992;2023-03-21T05:49:41;100172.81;;;2.81;78.41
69247;BME280;56358;56.328;43.992;2023-03-21T05:51:42;100252.50;;;3.29;78.60
69247;BME280;56358;56.328;43.992;2023-03-21T05:53:44;100216.38;;;3.11;78.72
69247;BME280;56358;56.328;43.992;2023-03-21T05:55:45;100247.28;;;3.28;78.73
69247;BME280;56358;56.328;43.992;2023-03-21T05:57:46;100243.88;;;3.26;78.59
69247;BME280;56358;56.328;43.992;2023-03-21T05:59:46;100233.56;;;3.19;78.47
69247;BME280;56358;56.328;43.992;2023-03-21T06:01:47;100218.75;;;3.15;79.36
69247;BME280;56358;56.328;43.992;2023-03-21T06:03:47;100231.38;;;3.28;79.57
69247;BME280;56358;56.328;43.992;2023-03-21T06:05:48;100234.81;;;3.30;78.79
69247;BME280;56358;56.328;43.992;2023-03-21T06:07:49;100227.97;;;3.26;79.17
69247;BME280;56358;56.328;43.992;2023-03-21T06:09:49;100213.63;;;3.30;79.27
69247;BME280;56358;56.328;43.992;2023-03-21T06:11:52;100150.13;;;2.93;79.44
69247;BME280;56358;56.328;43.992;2023-03-21T06:13:53;100138.88;;;2.90;78.80
69247;BME280;56358;56.328;43.992;2023-03-21T06:15:53;100223.44;;;3.28;78.90
69247;BME280;56358;56.328;43.992;2023-03-21T06:17:54;100213.09;;;3.23;78.83
69247;BME280;56358;56.328;43.992;2023-03-21T06:19:55;100220.56;;;3.32;78.74
69247;BME280;56358;56.328;43.992;2023-03-21T06:21:56;100209.06;;;3.32;78.98
69247;BME280;56358;56.328;43.992;2023-03-21T06:23:56;100204.13;;;3.26;78.98
69247;BME280;56358;56.328;43.992;2023-03-21T06:25:57;100213.38;;;3.34;79.12
69247;BME280;56358;56.328;43.992;2023-03-21T06:27:57;100181.28;;;3.23;78.71
69247;BME280;56358;56.328;43.992;2023-03-21T06:29:58;100165.00;;;3.13;78.78
69247;BME280;56358;56.328;43.992;2023-03-21T06:31:59;100200.75;;;3.40;78.85
69247;BME280;56358;56.328;43.992;2023-03-21T06:34:00;100184.31;;;3.33;79.02
69247;BME280;56358;56.328;43.992;2023-03-21T06:36:00;100195.25;;;3.43;79.62
69247;BME280;56358;56.328;43.992;2023-03-21T06:38:01;100097.25;;;2.92;80.23
69247;BME280;56358;56.328;43.992;2023-03-21T06:40:02;100168.72;;;3.44;83.50
69247;BME280;56358;56.328;43.992;2023-03-21T06:42:04;100184.19;;;3.52;81.10
69247;BME280;56358;56.328;43.992;2023-03-21T06:44:05;100184.66;;;3.43;81.56
69247;BME280;56358;56.328;43.992;2023-03-21T06:46:05;100187.78;;;3.51;80.62
69247;BME280;56358;56.328;43.992;2023-03-21T06:48:06;100148.41;;;3.27;80.13
69247;BME280;56358;56.328;43.992;2023-03-21T06:50:07;100165.09;;;3.45;79.94
69247;BME280;56358;56.328;43.992;2023-03-21T06:52:09;100181.38;;;3.55;79.86
69247;BME280;56358;56.328;43.992;2023-03-21T06:54:10;100148.66;;;3.39;79.21
69247;BME280;56358;56.328;43.992;2023-03-21T06:56:12;100122.38;;;3.18;79.18
69247;BME280;56358;56.328;43.992;2023-03-21T06:58:13;100180.59;;;3.53;79.32
69247;BME280;56358;56.328;43.992;2023-03-21T07:00:13;100191.19;;;3.53;79.25
69247;BME280;56358;56.328;43.992;2023-03-21T07:02:14;100189.41;;;3.53;79.14
69247;BME280;56358;56.328;43.992;2023-03-21T07:04:15;100179.91;;;3.49;79.08
69247;BME280;56358;56.328;43.992;2023-03-21T07:06:15;100171.28;;;3.46;79.39
69247;BME280;56358;56.328;43.992;2023-03-21T07:08:16;100186.81;;;3.52;78.60
69247;BME280;56358;56.328;43.992;2023-03-21T07:10:17;100168.44;;;3.49;78.64
69247;BME280;56358;56.328;43.992;2023-03-21T07:12:18;100159.19;;;3.40;78.92
69247;BME280;56358;56.328;43.992;2023-03-21T07:14:19;100066.19;;;2.95;78.77
69247;BME280;56358;56.328;43.992;2023-03-21T07:16:20;100146.41;;;3.48;78.55
69247;BME280;56358;56.328;43.992;2023-03-21T07:18:21;100169.63;;;3.43;78.33
69247;BME280;56358;56.328;43.992;2023-03-21T07:20:21;100163.94;;;3.33;79.11
69247;BME280;56358;56.328;43.992;2023-03-21T07:22:22;100155.41;;;3.28;79.33
69247;BME280;56358;56.328;43.992;2023-03-21T07:24:23;100148.06;;;3.33;79.28
69247;BME280;56358;56.328;43.992;2023-03-21T07:26:23;100063.00;;;2.89;79.92
69247;BME280;56358;56.328;43.992;2023-03-21T07:28:24;100134.47;;;3.40;79.47
69247;BME280;56358;56.328;43.992;2023-03-21T07:30:25;100143.53;;;3.35;78.83
69247;BME280;56358;56.328;43.992;2023-03-21T07:32:26;100119.81;;;3.16;79.34
69247;BME280;56358;56.328;43.992;2023-03-21T07:34:29;100133.97;;;3.33;79.28
69247;BME280;56358;56.328;43.992;2023-03-21T07:36:32;100140.19;;;3.32;79.21
69247;BME280;56358;56.328;43.992;2023-03-21T07:38:33;100140.97;;;3.34;79.12
69247;BME280;56358;56.328;43.992;2023-03-21T07:40:33;100112.94;;;3.30;79.58
69247;BME280;56358;56.328;43.992;2023-03-21T07:42:35;100118.75;;;3.37;79.46
69247;BME280;56358;56.328;43.992;2023-03-21T07:44:36;100009.53;;;2.82;79.17
69247;BME280;56358;56.328;43.992;2023-03-21T07:46:36;100124.69;;;3.42;78.76
69247;BME280;56358;56.328;43.992;2023-03-21T07:48:37;100099.50;;;3.33;78.58
69247;BME280;56358;56.328;43.992;2023-03-21T07:50:39;100120.91;;;3.46;79.01
69247;BME280;56358;56.328;43.992;2023-03-21T07:52:40;100108.59;;;3.45;79.09
69247;BME280;56358;56.328;43.992;2023-03-21T07:54:41;100098.00;;;3.45;79.58
69247;BME280;56358;56.328;43.992;2023-03-21T07:56:42;100103.28;;;3.45;79.60
69247;BME280;56358;56.328;43.992;2023-03-21T07:58:42;100100.22;;;3.52;79.49
69247;BME280;56358;56.328;43.992;2023-03-21T08:00:43;100095.69;;;3.55;79.22
69247;BME280;56358;56.328;43.992;2023-03-21T08:02:44;100101.59;;;3.60;79.37
69247;BME280;56358;56.328;43.992;2023-03-21T08:04:44;100104.06;;;3.63;79.12
69247;BME280;56358;56.328;43.992;2023-03-21T08:06:45;100100.31;;;3.67;79.13
69247;BME280;56358;56.328;43.992;2023-03-21T08:08:46;100071.00;;;3.54;78.40
69247;BME280;56358;56.328;43.992;2023-03-21T08:10:46;100087.22;;;3.64;79.11
69247;BME280;56358;56.328;43.992;2023-03-21T08:12:47;100090.06;;;3.61;78.85
69247;BME280;56358;56.328;43.992;2023-03-21T08:14:48;100082.78;;;3.48;78.79
69247;BME280;56358;56.328;43.992;2023-03-21T08:16:49;100086.72;;;3.57;79.13
69247;BME280;56358;56.328;43.992;2023-03-21T08:18:50;100088.53;;;3.57;79.50
69247;BME280;56358;56.328;43.992;2023-03-21T08:20:55;100060.72;;;3.48;79.43
69247;BME280;56358;56.328;43.992;2023-03-21T08:22:56;100074.84;;;3.64;79.48
69247;BME280;56358;56.328;43.992;2023-03-21T08:24:56;100011.13;;;3.18;79.50
69247;BME280;56358;56.328;43.992;2023-03-21T08:26:57;100083.56;;;3.66;79.46
69247;BME280;56358;56.328;43.992;2023-03-21T08:28:58;100077.75;;;3.76;79.12
69247;BME280;56358;56.328;43.992;2023-03-21T08:30:59;100049.78;;;3.54;79.19
69247;BME280;56358;56.328;43.992;2023-03-21T08:33:00;100027.03;;;3.50;78.97
69247;BME280;56358;56.328;43.992;2023-03-21T08:35:01;100070.56;;;3.78;79.10
69247;BME280;56358;56.328;43.992;2023-03-21T08:37:03;100070.13;;;3.85;79.08
69247;BME280;56358;56.328;43.992;2023-03-21T08:39:05;100083.03;;;3.92;79.35
69247;BME280;56358;56.328;43.992;2023-03-21T08:41:06;100078.25;;;3.98;78.45
69247;BME280;56358;56.328;43.992;2023-03-21T08:43:06;100064.47;;;3.92;78.73
69247;BME280;56358;56.328;43.992;2023-03-21T08:45:08;100081.59;;;4.02;78.75
69247;BME280;56358;56.328;43.992;2023-03-21T08:47:09;100066.09;;;3.94;78.35
69247;BME280;56358;56.328;43.992;2023-03-21T08:49:09;100071.41;;;3.94;78.94
69247;BME280;56358;56.328;43.992;2023-03-21T08:51:11;100004.91;;;3.51;82.35
69247;BME280;56358;56.328;43.992;2023-03-21T08:53:12;100067.34;;;4.03;84.79
69247;BME280;56358;56.328;43.992;2023-03-21T08:55:14;100075.84;;;3.94;80.58
69247;BME280;56358;56.328;43.992;2023-03-21T08:57:15;100063.88;;;3.86;79.49
69247;BME280;56358;56.328;43.992;2023-03-21T08:59:16;100074.91;;;3.79;79.32
69247;BME280;56358;56.328;43.992;2023-03-21T09:01:16;100008.06;;;3.42;79.59
69247;BME280;56358;56.328;43.992;2023-03-21T09:03:17;100060.31;;;3.72;79.11
69247;BME280;56358;56.328;43.992;2023-03-21T09:05:20;100060.13;;;3.75;79.11
69247;BME280;56358;56.328;43.992;2023-03-21T09:07:21;100059.59;;;3.68;78.63
69247;BME280;56358;56.328;43.992;2023-03-21T09:09:21;100046.34;;;3.52;79.24
69247;BME280;56358;56.328;43.992;2023-03-21T09:11:22;100060.31;;;3.72;79.64
69247;BME280;56358;56.328;43.992;2023-03-21T09:13:23;100046.00;;;3.74;78.97
69247;BME280;56358;56.328;43.992;2023-03-21T09:15:25;100036.16;;;3.76;79.33
69247;BME280;56358;56.328;43.992;2023-03-21T09:17:28;100042.34;;;3.77;78.46
69247;BME280;56358;56.328;43.992;2023-03-21T09:19:29;100026.59;;;3.74;79.00
69247;BME280;56358;56.328;43.992;2023-03-21T09:21:31;100043.19;;;3.77;78.93
69247;BME280;56358;56.328;43.992;2023-03-21T09:23:31;99948.06;;;3.41;79.31
69247;BME280;56358;56.328;43.992;2023-03-21T09:25:33;100007.88;;;3.77;79.39
69247;BME280;56358;56.328;43.992;2023-03-21T09:27:34;100036.84;;;3.96;79.55
69247;BME280;56358;56.328;43.992;2023-03-21T09:29:34;100014.94;;;3.92;79.05
69247;BME280;56358;56.328;43.992;2023-03-21T09:31:35;100032.81;;;4.05;79.44
69247;BME280;56358;56.328;43.992;2023-03-21T09:33:37;100014.25;;;4.05;79.31
69247;BME280;56358;56.328;43.992;2023-03-21T09:35:39;100024.13;;;4.17;79.03
69247;BME280;56358;56.328;43.992;2023-03-21T09:37:40;100026.16;;;4.28;78.67
69247;BME280;56358;56.328;43.992;2023-03-21T09:39:42;100002.25;;;4.28;78.26
69247;BME280;56358;56.328;43.992;2023-03-21T09:48:51;100009.38;;;4.42;77.37
69247;BME280;56358;56.328;43.992;2023-03-21T09:50:57;100004.09;;;4.42;77.79
69247;BME280;56358;56.328;43.992;2023-03-21T09:53:07;100026.97;;;4.59;77.30
69247;BME280;56358;56.328;43.992;2023-03-21T09:55:21;99984.75;;;4.54;76.96
69247;BME280;56358;56.328;43.992;2023-03-21T09:59:37;99986.78;;;4.65;75.91
69247;BME280;56358;56.328;43.992;2023-03-21T10:01:41;99977.25;;;4.61;76.06
69247;BME280;56358;56.328;43.992;2023-03-21T10:03:44;100006.31;;;4.78;75.78
69247;BME280;56358;56.328;43.992;2023-03-21T10:05:47;99976.16;;;4.65;75.80
69247;BME280;56358;56.328;43.992;2023-03-21T10:09:58;99987.53;;;4.81;76.22
69247;BME280;56358;56.328;43.992;2023-03-21T10:12:03;99920.41;;;4.50;76.27
69247;BME280;56358;56.328;43.992;2023-03-21T10:14:15;99988.59;;;4.93;77.06
69247;BME280;56358;56.328;43.992;2023-03-21T10:16:28;99988.19;;;4.99;78.61
69247;BME280;56358;56.328;43.992;2023-03-21T10:18:30;99973.13;;;4.85;79.07
69247;BME280;56358;56.328;43.992;2023-03-21T10:20:34;99996.16;;;4.99;77.11
69247;BME280;56358;56.328;43.992;2023-03-21T10:22:35;100002.25;;;5.01;76.72
69247;BME280;56358;56.328;43.992;2023-03-21T10:24:36;99960.50;;;4.75;76.21
69247;BME280;56358;56.328;43.992;2023-03-21T10:26:37;99966.97;;;4.70;76.55
69247;BME280;56358;56.328;43.992;2023-03-21T10:28:39;100004.03;;;4.86;76.71
69247;BME280;56358;56.328;43.992;2023-03-21T10:31:02;99981.84;;;4.73;76.61
69247;BME280;56358;56.328;43.992;2023-03-21T10:33:06;99995.03;;;4.75;76.66
69247;BME280;56358;56.328;43.992;2023-03-21T10:35:12;99991.22;;;4.79;76.61
69247;BME280;56358;56.328;43.992;2023-03-21T10:37:13;99990.47;;;4.77;77.06
69247;BME280;56358;56.328;43.992;2023-03-21T10:39:25;99951.97;;;4.55;76.77
69247;BME280;56358;56.328;43.992;2023-03-21T10:41:27;99973.50;;;4.65;76.96
69247;BME280;56358;56.328;43.992;2023-03-21T10:45:34;99871.63;;;3.94;77.16
69247;BME280;56358;56.328;43.992;2023-03-21T10:47:35;99974.91;;;4.56;77.42
69247;BME280;56358;56.328;43.992;2023-03-21T10:49:36;99986.31;;;4.58;77.96
69247;BME280;56358;56.328;43.992;2023-03-21T10:51:38;99987.59;;;4.51;77.94
69247;BME280;56358;56.328;43.992;2023-03-21T10:53:40;99970.16;;;4.47;78.26
69247;BME280;56358;56.328;43.992;2023-03-21T10:55:49;99978.22;;;4.45;78.75
69247;BME280;56358;56.328;43.992;2023-03-21T10:57:58;99986.19;;;4.45;79.08
69247;BME280;56358;56.328;43.992;2023-03-21T11:00:01;99974.78;;;4.43;78.97
69247;BME280;56358;56.328;43.992;2023-03-21T11:02:23;99955.44;;;4.27;79.35
69247;BME280;56358;56.328;43.992;2023-03-21T11:04:26;99988.72;;;4.32;79.47
69247;BME280;56358;56.328;43.992;2023-03-21T11:06:30;99977.34;;;4.30;79.72
69247;BME280;56358;56.328;43.992;2023-03-21T11:08:45;99957.94;;;3.99;80.15
69247;BME280;56358;56.328;43.992;2023-03-21T11:11:06;99884.63;;;3.68;80.19
69247;BME280;56358;56.328;43.992;2023-03-21T11:13:16;99958.59;;;4.03;80.48
69247;BME280;56358;56.328;43.992;2023-03-21T11:17:37;99957.16;;;3.97;81.30
69247;BME280;56358;56.328;43.992;2023-03-21T11:19:38;99950.69;;;3.87;81.21
69247;BME280;56358;56.328;43.992;2023-03-21T11:21:39;99903.63;;;3.60;81.59
69247;BME280;56358;56.328;43.992;2023-03-21T11:23:45;99966.16;;;3.95;81.71
69247;BME280;56358;56.328;43.992;2023-03-21T11:25:48;99952.59;;;3.85;81.89
69247;BME280;56358;56.328;43.992;2023-03-21T11:27:52;99878.13;;;3.43;81.65
69247;BME280;56358;56.328;43.992;2023-03-21T11:29:55;99891.25;;;3.61;81.85